createdAt,value
2017-08-15T00:01:01.688Z,1.80
2017-08-15T00:03:32.242Z,1.70
2017-08-15T00:06:02.678Z,1.40
2017-08-15T00:08:33.255Z,1.37
2017-08-15T00:11:03.736Z,1.50
2017-08-15T00:13:34.143Z,1.60
2017-08-15T00:16:04.671Z,1.93
2017-08-15T00:18:35.113Z,1.37
2017-08-15T00:21:05.608Z,1.73
2017-08-15T00:23:36.002Z,2.20
2017-08-15T00:26:07.076Z,2.27
2017-08-15T00:28:37.581Z,2.40
2017-08-15T00:31:08.131Z,2.87
2017-08-15T00:33:38.722Z,2.13
2017-08-15T00:36:09.258Z,2.50
2017-08-15T00:38:39.864Z,3.40
2017-08-15T00:41:10.365Z,3.30
2017-08-15T00:43:40.899Z,4.00
2017-08-15T00:46:11.336Z,4.60
2017-08-15T00:48:41.636Z,4.30
2017-08-15T00:51:12.174Z,3.97
2017-08-15T00:53:42.776Z,4.53
2017-08-15T00:56:13.855Z,4.43
2017-08-15T00:58:44.369Z,4.63
2017-08-15T01:01:15.343Z,4.37
2017-08-15T01:03:45.746Z,4.20
2017-08-15T01:06:16.283Z,4.27
2017-08-15T01:08:46.629Z,3.27
2017-08-15T01:11:17.029Z,3.10
2017-08-15T01:13:47.451Z,3.87
2017-08-15T01:16:18.003Z,5.03
2017-08-15T01:18:48.518Z,3.73
2017-08-15T01:21:19.058Z,4.70
2017-08-15T01:23:49.592Z,5.77
2017-08-15T01:26:20.202Z,5.30
2017-08-15T01:28:50.825Z,5.57
2017-08-15T01:31:22.119Z,5.53
2017-08-15T01:33:52.505Z,5.00
2017-08-15T01:36:22.911Z,4.73
2017-08-15T01:38:53.395Z,5.07
2017-08-15T01:41:23.781Z,3.67
2017-08-15T01:43:55.146Z,3.40
2017-08-15T01:46:25.821Z,3.73
2017-08-15T01:48:56.386Z,4.00
2017-08-15T01:51:26.929Z,3.20
2017-08-15T01:53:58.107Z,2.53
2017-08-15T01:56:28.653Z,3.10
2017-08-15T01:58:59.073Z,3.00
2017-08-15T02:01:29.722Z,3.40
2017-08-15T02:04:00.301Z,3.00
2017-08-15T02:06:31.500Z,2.60
2017-08-15T02:09:02.033Z,2.70
2017-08-15T02:11:34.108Z,2.60
2017-08-15T02:14:04.425Z,3.00
2017-08-15T02:16:34.948Z,3.03
2017-08-15T02:19:05.494Z,2.00
2017-08-15T02:21:36.216Z,2.97
2017-08-15T02:24:06.757Z,2.90
2017-08-15T02:26:37.230Z,3.20
2017-08-15T02:29:08.494Z,4.10
2017-08-15T02:31:39.066Z,2.77
2017-08-15T02:34:09.613Z,3.80
2017-08-15T02:36:40.134Z,3.10
2017-08-15T02:39:10.696Z,3.80
2017-08-15T02:41:41.252Z,3.20
2017-08-15T02:44:11.793Z,3.60
2017-08-15T02:46:42.383Z,4.03
2017-08-15T02:49:12.791Z,4.47
2017-08-15T02:51:43.510Z,4.33
2017-08-15T02:54:13.932Z,5.70
2017-08-15T02:56:44.464Z,4.73
2017-08-15T02:59:14.912Z,6.00
2017-08-15T03:01:45.635Z,5.53
2017-08-15T03:04:16.145Z,5.53
2017-08-15T03:06:46.769Z,5.67
2017-08-15T03:09:17.362Z,6.47
2017-08-15T03:11:47.866Z,5.80
2017-08-15T03:14:18.497Z,5.67
2017-08-15T03:16:49.119Z,7.20
2017-08-15T03:19:19.681Z,6.10
2017-08-15T03:21:51.076Z,7.17
2017-08-15T03:24:22.227Z,6.97
2017-08-15T03:26:52.794Z,7.33
2017-08-15T03:29:23.421Z,7.00
2017-08-15T03:31:54.033Z,7.10
2017-08-15T03:34:24.661Z,6.00
2017-08-15T03:36:55.290Z,5.60
2017-08-15T03:39:25.908Z,4.90
2017-08-15T03:41:57.277Z,5.10
2017-08-15T03:44:27.870Z,4.70
2017-08-15T03:46:58.675Z,5.80
2017-08-15T03:49:29.321Z,5.40
2017-08-15T03:51:59.842Z,4.43
2017-08-15T03:54:30.421Z,4.03
2017-08-15T03:57:01.806Z,3.97
2017-08-15T03:59:32.429Z,3.50
2017-08-15T04:02:03.155Z,4.03
2017-08-15T04:04:33.776Z,5.03
2017-08-15T04:07:05.268Z,3.63
2017-08-15T04:09:35.676Z,4.17
2017-08-15T04:12:06.236Z,4.03
2017-08-15T04:14:36.726Z,4.60
2017-08-15T04:17:07.930Z,3.17
2017-08-15T04:19:38.387Z,4.20
2017-08-15T04:22:09.619Z,3.57
2017-08-15T04:24:39.907Z,3.20
2017-08-15T04:27:10.640Z,3.23
2017-08-15T04:29:41.020Z,4.60
2017-08-15T04:32:11.473Z,3.73
2017-08-15T04:34:41.984Z,4.17
2017-08-15T04:37:13.049Z,3.40
2017-08-15T04:39:43.591Z,2.83
2017-08-15T04:42:14.026Z,2.50
2017-08-15T04:44:44.501Z,2.30
2017-08-15T04:47:14.784Z,2.70
2017-08-15T04:49:45.273Z,2.20
2017-08-15T04:52:16.522Z,2.20
2017-08-15T04:54:47.681Z,2.20
2017-08-15T04:57:18.851Z,2.83
2017-08-15T04:59:49.271Z,2.23
2017-08-15T05:02:19.918Z,3.00
2017-08-15T05:04:50.239Z,1.90
2017-08-15T05:07:21.035Z,2.40
2017-08-15T05:09:52.441Z,1.90
2017-08-15T05:12:23.354Z,1.57
2017-08-15T05:14:53.841Z,2.50
2017-08-15T05:17:24.399Z,1.70
2017-08-15T05:19:55.548Z,1.10
2017-08-15T05:22:26.856Z,1.90
2017-08-15T05:24:57.350Z,1.97
2017-08-15T05:27:27.868Z,1.17
2017-08-15T05:29:58.415Z,1.50
2017-08-15T05:32:29.036Z,0.90
2017-08-15T05:34:59.515Z,1.43
2017-08-15T05:37:30.176Z,1.00
2017-08-15T05:40:01.424Z,1.20
2017-08-15T05:42:32.726Z,1.03
2017-08-15T05:45:03.461Z,1.10
2017-08-15T05:47:33.690Z,1.50
2017-08-15T05:50:04.115Z,1.60
2017-08-15T05:52:34.650Z,1.17
2017-08-15T05:55:05.059Z,1.80
2017-08-15T05:57:35.635Z,1.13
2017-08-15T06:00:06.119Z,1.70
2017-08-15T06:02:36.660Z,1.27
2017-08-15T06:05:07.400Z,1.80
2017-08-15T06:07:37.785Z,1.23
2017-08-15T06:10:09.123Z,1.93
2017-08-15T06:12:40.416Z,2.00
2017-08-15T06:15:10.957Z,2.00
2017-08-15T06:17:41.386Z,1.37
2017-08-15T06:20:11.879Z,1.43
2017-08-15T06:22:42.530Z,1.33
2017-08-15T06:25:13.072Z,1.33
2017-08-15T06:27:43.855Z,1.43
2017-08-15T06:30:14.436Z,1.10
2017-08-15T06:32:45.049Z,1.10
2017-08-15T06:35:20.197Z,1.80
2017-08-15T06:37:50.853Z,1.10
2017-08-15T06:40:21.489Z,1.03
2017-08-15T06:42:51.845Z,1.07
2017-08-15T06:45:22.352Z,1.43
2017-08-15T06:47:52.874Z,1.00
2017-08-15T06:50:23.303Z,0.90
2017-08-15T06:52:53.809Z,1.00
2017-08-15T06:55:24.419Z,0.87
2017-08-15T06:57:55.720Z,1.53
2017-08-15T07:00:26.233Z,0.90
2017-08-15T07:02:57.086Z,0.70
2017-08-15T07:05:27.483Z,1.30
2017-08-15T07:07:57.908Z,2.50
2017-08-15T07:10:28.541Z,0.80
2017-08-15T07:12:59.040Z,0.70
2017-08-15T07:15:29.669Z,1.23
2017-08-15T07:18:00.228Z,0.80
2017-08-15T07:20:30.801Z,1.00
2017-08-15T07:23:01.382Z,0.70
2017-08-15T07:25:32.530Z,1.03
2017-08-15T07:28:03.792Z,0.70
2017-08-15T07:30:34.372Z,0.70
2017-08-15T07:33:04.720Z,0.80
2017-08-15T07:35:35.155Z,0.87
2017-08-15T07:38:05.735Z,0.70
2017-08-15T07:40:36.326Z,0.63
2017-08-15T07:43:06.753Z,0.77
2017-08-15T07:45:38.023Z,0.80
2017-08-15T07:48:08.553Z,0.80
2017-08-15T07:50:39.140Z,0.60
2017-08-15T07:53:09.609Z,0.70
2017-08-15T07:55:40.703Z,0.70
2017-08-15T07:58:11.325Z,0.70
2017-08-15T08:00:41.949Z,0.60
2017-08-15T08:03:12.417Z,0.70
2017-08-15T08:05:42.929Z,0.73
2017-08-15T08:08:13.387Z,0.60
2017-08-15T08:10:43.828Z,0.67
2017-08-15T08:13:15.007Z,0.60
2017-08-15T08:15:45.518Z,0.50
2017-08-15T08:18:16.047Z,0.40
2017-08-15T08:20:46.603Z,0.90
2017-08-15T08:23:17.220Z,0.50
2017-08-15T08:25:47.726Z,0.80
2017-08-15T08:28:19.012Z,0.70
2017-08-15T08:30:49.550Z,0.63
2017-08-15T08:33:19.972Z,0.70
2017-08-15T08:35:50.574Z,0.90
2017-08-15T08:38:21.765Z,0.60
2017-08-15T08:40:52.307Z,0.67
2017-08-15T08:43:22.831Z,0.50
2017-08-15T08:45:53.419Z,0.60
2017-08-15T08:48:23.855Z,0.70
2017-08-15T08:50:54.462Z,1.00
2017-08-15T08:53:25.658Z,0.70
2017-08-15T08:55:56.050Z,0.97
2017-08-15T08:58:27.584Z,1.00
2017-08-15T09:00:57.993Z,0.90
2017-08-15T09:03:28.439Z,0.70
2017-08-15T09:05:58.998Z,0.70
2017-08-15T09:08:30.341Z,0.60
2017-08-15T09:11:01.603Z,4.90
2017-08-15T09:13:32.786Z,1.90
2017-08-15T09:16:03.332Z,2.27
2017-08-15T09:18:33.722Z,0.90
2017-08-15T09:21:04.137Z,0.50
2017-08-15T09:23:34.792Z,0.70
2017-08-15T09:26:05.357Z,0.80
2017-08-15T09:28:35.961Z,0.53
2017-08-15T09:31:06.601Z,0.50
2017-08-15T09:33:37.361Z,1.17
2017-08-15T09:36:07.783Z,1.90
2017-08-15T09:38:38.354Z,0.90
2017-08-15T09:41:09.627Z,0.73
2017-08-15T09:43:40.158Z,0.80
2017-08-15T09:46:10.753Z,0.60
2017-08-15T09:48:41.859Z,0.77
2017-08-15T09:51:12.282Z,0.77
2017-08-15T09:53:42.692Z,0.67
2017-08-15T09:56:13.266Z,1.50
2017-08-15T09:58:49.266Z,1.10
2017-08-15T10:01:20.729Z,0.80
2017-08-15T10:06:27.374Z,0.73
2017-08-15T10:08:58.001Z,0.50
2017-08-15T10:11:28.459Z,0.70
2017-08-15T10:13:59.851Z,0.77
2017-08-15T10:16:30.301Z,1.10
2017-08-15T10:19:01.011Z,1.43
2017-08-15T10:21:31.584Z,0.90
2017-08-15T10:24:02.050Z,0.87
2017-08-15T10:26:33.263Z,0.93
2017-08-15T10:29:03.759Z,1.37
2017-08-15T10:31:34.289Z,1.10
2017-08-15T10:34:04.688Z,1.23
2017-08-15T10:36:35.939Z,1.00
2017-08-15T10:39:06.815Z,1.87
2017-08-15T10:41:37.326Z,2.57
2017-08-15T10:44:07.878Z,1.17
2017-08-15T10:46:38.368Z,1.50
2017-08-15T10:49:08.897Z,1.77
2017-08-15T10:51:39.425Z,1.00
2017-08-15T10:54:09.979Z,1.20
2017-08-15T10:56:40.803Z,0.97
2017-08-15T10:59:11.568Z,1.80
2017-08-15T11:01:42.244Z,3.40
2017-08-15T11:04:13.281Z,2.60
2017-08-15T11:06:43.671Z,2.20
2017-08-15T11:09:14.168Z,3.70
2017-08-15T11:11:44.791Z,3.67
2017-08-15T11:14:16.087Z,2.80
2017-08-15T11:16:46.834Z,2.10
2017-08-15T11:19:17.402Z,1.43
2017-08-15T11:21:48.588Z,2.23
2017-08-15T11:24:19.213Z,3.10
2017-08-15T11:26:49.812Z,1.90
2017-08-15T11:29:21.051Z,2.00
2017-08-15T11:31:51.404Z,2.50
2017-08-15T11:34:22.065Z,2.93
2017-08-15T11:36:52.487Z,2.53
2017-08-15T11:39:22.996Z,2.97
2017-08-15T11:41:53.950Z,3.50
2017-08-15T11:44:24.568Z,3.40
2017-08-15T11:46:55.739Z,3.73
2017-08-15T11:49:26.172Z,3.93
2017-08-15T11:51:56.689Z,3.13
2017-08-15T11:54:27.141Z,4.67
2017-08-15T11:56:57.696Z,4.43
2017-08-15T11:59:28.291Z,3.27
2017-08-15T12:01:58.941Z,2.30
2017-08-15T12:04:29.837Z,1.63
2017-08-15T12:07:01.078Z,1.70
2017-08-15T12:09:32.286Z,1.63
2017-08-15T12:12:02.788Z,2.60
2017-08-15T12:14:33.402Z,3.87
2017-08-15T12:17:04.020Z,5.57
2017-08-15T12:19:35.214Z,3.03
2017-08-15T12:22:05.682Z,1.73
2017-08-15T12:24:36.177Z,6.93
2017-08-15T12:27:06.651Z,8.67
2017-08-15T12:29:37.837Z,2.57
2017-08-15T12:32:08.268Z,1.60
2017-08-15T12:34:38.826Z,4.43
2017-08-15T12:37:09.401Z,2.80
2017-08-15T12:39:39.951Z,2.90
2017-08-15T12:42:10.557Z,2.53
2017-08-15T12:44:41.651Z,3.00
2017-08-15T12:47:12.104Z,2.50
2017-08-15T12:49:43.700Z,2.40
2017-08-15T12:52:13.986Z,2.50
2017-08-15T12:54:44.547Z,2.30
2017-08-15T12:57:15.828Z,2.13
2017-08-15T12:59:46.282Z,1.77
2017-08-15T13:02:16.550Z,1.87
2017-08-15T13:04:48.241Z,2.10
2017-08-15T13:07:20.215Z,1.43
2017-08-15T13:09:50.621Z,2.00
2017-08-15T13:12:21.063Z,1.17
2017-08-15T13:14:52.313Z,1.37
2017-08-15T13:17:22.729Z,0.97
2017-08-15T13:19:53.314Z,0.87
2017-08-15T13:22:23.928Z,1.57
2017-08-15T13:24:54.809Z,1.27
2017-08-15T13:27:26.231Z,1.27
2017-08-15T13:29:56.841Z,1.10
2017-08-15T13:32:27.767Z,2.03
2017-08-15T13:34:58.893Z,1.60
2017-08-15T13:37:29.851Z,2.30
2017-08-15T13:40:00.532Z,2.83
2017-08-15T13:42:31.219Z,2.17
2017-08-15T13:45:01.664Z,2.03
2017-08-15T13:47:33.183Z,1.73
2017-08-15T13:50:03.599Z,2.40
2017-08-15T13:52:34.842Z,1.80
2017-08-15T13:55:06.080Z,1.67
2017-08-15T13:57:36.507Z,1.20
2017-08-15T14:00:07.110Z,1.27
2017-08-15T14:02:38.566Z,1.10
2017-08-15T14:05:09.787Z,1.10
2017-08-15T14:07:40.611Z,1.60
2017-08-15T14:13:29.854Z,1.00
2017-08-15T14:22:45.735Z,1.10
2017-08-15T14:32:13.030Z,1.70
2017-08-15T14:35:28.574Z,1.20
2017-08-15T14:38:35.766Z,0.87
2017-08-15T14:41:20.199Z,0.93
2017-08-15T14:43:51.614Z,1.67
2017-08-15T14:46:22.491Z,1.10
2017-08-15T14:48:53.264Z,2.80
2017-08-15T14:51:24.077Z,2.30
2017-08-15T14:53:55.412Z,6.73
2017-08-15T14:56:26.612Z,1.47
2017-08-15T14:58:59.054Z,1.90
2017-08-15T15:01:30.591Z,2.23
2017-08-15T15:04:02.361Z,2.50
2017-08-15T15:06:35.443Z,3.13
2017-08-15T15:09:07.487Z,2.70
2017-08-15T15:11:38.895Z,4.80
2017-08-15T15:14:10.792Z,3.23
2017-08-15T15:16:41.589Z,3.33
2017-08-15T15:19:12.103Z,2.80
2017-08-15T15:21:42.581Z,3.10
2017-08-15T15:24:14.220Z,3.83
2017-08-15T15:26:45.012Z,4.17
2017-08-15T15:29:15.845Z,3.13
2017-08-15T15:31:46.686Z,3.30
2017-08-15T15:34:17.343Z,2.70
2017-08-15T15:36:47.828Z,2.63
2017-08-15T15:39:18.361Z,2.87
2017-08-15T15:41:50.059Z,3.73
2017-08-15T15:44:20.418Z,2.43
2017-08-15T15:46:51.031Z,2.10
2017-08-15T15:49:21.374Z,2.20
2017-08-15T15:51:52.152Z,2.30
2017-08-15T15:54:22.815Z,2.97
2017-08-15T15:56:53.331Z,2.50
2017-08-15T15:59:24.134Z,2.03
2017-08-15T16:01:55.453Z,2.50
2017-08-15T16:04:25.851Z,2.30
2017-08-15T16:06:56.694Z,2.10
2017-08-15T16:09:26.988Z,2.37
2017-08-15T16:11:57.851Z,3.00
2017-08-15T16:14:28.443Z,2.50
2017-08-15T16:16:59.541Z,1.83
2017-08-15T16:19:29.983Z,2.03
2017-08-15T16:22:00.554Z,1.47
2017-08-15T16:24:32.054Z,2.67
2017-08-15T16:27:02.451Z,1.60
2017-08-15T16:29:33.000Z,1.50
2017-08-15T16:32:03.531Z,1.30
2017-08-15T16:34:33.994Z,1.70
2017-08-15T16:37:04.407Z,3.40
2017-08-15T16:39:35.301Z,2.10
2017-08-15T16:42:06.928Z,2.30
2017-08-15T16:44:37.552Z,1.70
2017-08-15T16:47:08.291Z,1.83
2017-08-15T16:49:39.972Z,1.63
2017-08-15T16:52:11.236Z,2.30
2017-08-15T16:57:22.430Z,1.20
2017-08-15T16:59:53.679Z,2.83
2017-08-15T17:02:24.155Z,1.43
2017-08-15T17:04:54.753Z,2.37
2017-08-15T17:07:25.621Z,2.07
2017-08-15T17:09:56.040Z,1.87
2017-08-15T17:12:26.509Z,2.60
2017-08-15T17:14:57.326Z,1.30
2017-08-15T17:17:27.776Z,1.23
2017-08-15T17:19:58.301Z,1.77
2017-08-15T17:22:28.926Z,1.30
2017-08-15T17:24:59.318Z,1.43
2017-08-15T17:27:29.782Z,1.23
2017-08-15T17:30:00.189Z,1.50
2017-08-15T17:32:30.677Z,1.97
2017-08-15T17:35:01.859Z,1.30
2017-08-15T17:37:32.285Z,1.93
2017-08-15T17:40:03.053Z,2.03
2017-08-15T17:42:33.532Z,1.40
2017-08-15T17:45:04.016Z,1.63
2017-08-15T17:47:34.470Z,1.90
2017-08-15T17:50:05.845Z,1.43
2017-08-15T17:52:36.274Z,2.00
2017-08-15T17:55:06.761Z,1.77
2017-08-15T17:57:40.182Z,2.10
2017-08-15T18:00:11.697Z,2.13
2017-08-15T18:02:42.284Z,2.47
2017-08-15T18:05:12.905Z,2.60
2017-08-15T18:07:43.693Z,2.20
2017-08-15T18:10:14.269Z,2.43
2017-08-15T18:12:45.770Z,2.50
2017-08-15T18:15:16.108Z,3.10
2017-08-15T18:17:47.301Z,2.23
2017-08-15T18:20:18.559Z,3.20
2017-08-15T18:22:49.293Z,4.33
2017-08-15T18:25:20.691Z,2.80
2017-08-15T18:27:51.360Z,2.70
2017-08-15T18:30:22.619Z,2.77
2017-08-15T18:32:53.906Z,2.70
2017-08-15T18:35:24.324Z,3.00
2017-08-15T18:37:54.779Z,3.60
2017-08-15T18:40:25.343Z,2.83
2017-08-15T18:42:56.222Z,3.47
2017-08-15T18:45:26.593Z,3.10
2017-08-15T18:47:57.128Z,3.57
2017-08-15T18:50:27.736Z,3.70
2017-08-15T18:52:58.484Z,5.00
2017-08-15T18:55:29.377Z,4.37
2017-08-15T18:58:00.308Z,3.87
2017-08-15T19:00:31.065Z,3.30
2017-08-15T19:03:01.654Z,3.50
2017-08-15T19:05:32.163Z,3.47
2017-08-15T19:08:03.084Z,2.77
2017-08-15T19:10:33.665Z,3.03
2017-08-15T19:13:05.052Z,2.63
2017-08-15T19:15:35.542Z,3.30
2017-08-15T19:18:05.913Z,3.13
2017-08-15T19:20:36.330Z,3.10
2017-08-15T19:23:06.784Z,2.50
2017-08-15T19:25:37.401Z,2.90
2017-08-15T19:28:08.018Z,3.07
2017-08-15T19:30:38.625Z,2.67
2017-08-15T19:33:09.169Z,2.80
2017-08-15T19:35:40.325Z,2.90
2017-08-15T19:38:10.840Z,3.17
2017-08-15T19:40:42.224Z,2.80
2017-08-15T19:43:17.257Z,2.63
2017-08-15T19:45:48.190Z,2.60
2017-08-15T19:48:19.083Z,2.83
2017-08-15T19:53:24.069Z,2.97
2017-08-15T19:55:54.503Z,2.70
2017-08-15T19:58:25.002Z,3.60
2017-08-15T20:00:55.663Z,3.60
2017-08-15T20:03:26.725Z,3.47
2017-08-15T20:05:57.249Z,3.53
2017-08-15T20:08:28.143Z,3.60
2017-08-15T20:10:58.504Z,4.30
2017-08-15T20:13:29.089Z,4.17
2017-08-15T20:15:59.630Z,5.10
2017-08-15T20:18:30.187Z,5.13
2017-08-15T20:21:01.461Z,5.23
2017-08-15T20:23:32.015Z,4.87
2017-08-15T20:26:02.606Z,4.67
2017-08-15T20:28:33.783Z,4.47
2017-08-15T20:31:04.250Z,4.20
2017-08-15T20:33:34.725Z,4.30
2017-08-15T20:36:05.195Z,4.47
2017-08-15T20:38:35.695Z,3.57
2017-08-15T20:41:06.231Z,3.90
2017-08-15T20:43:36.886Z,4.40
2017-08-15T20:46:07.286Z,4.87
2017-08-15T20:48:37.706Z,5.13
2017-08-15T20:51:08.458Z,5.00
2017-08-15T20:53:38.897Z,4.77
2017-08-15T20:56:11.065Z,5.43
2017-08-15T20:58:41.492Z,5.00
2017-08-15T21:01:12.019Z,4.93
2017-08-15T21:03:42.524Z,5.00
2017-08-15T21:06:13.030Z,5.57
2017-08-15T21:08:44.631Z,5.00
2017-08-15T21:11:15.175Z,4.87
2017-08-15T21:13:45.634Z,4.80
2017-08-15T21:16:16.101Z,5.00
2017-08-15T21:18:46.618Z,5.30
2017-08-15T21:21:17.829Z,4.57
2017-08-15T21:23:48.127Z,4.90
2017-08-15T21:26:18.553Z,4.50
2017-08-15T21:28:49.174Z,4.83
2017-08-15T21:31:19.713Z,5.23
2017-08-15T21:33:50.227Z,4.27
2017-08-15T21:36:20.761Z,5.17
2017-08-15T21:38:51.054Z,5.43
2017-08-15T21:41:21.531Z,4.93
2017-08-15T21:43:52.067Z,4.60
2017-08-15T21:46:22.779Z,4.50
2017-08-15T21:48:53.456Z,5.40
2017-08-15T21:51:24.078Z,4.53
2017-08-15T21:53:54.699Z,4.70
2017-08-15T21:56:25.296Z,4.40
2017-08-15T21:58:55.668Z,3.93
2017-08-15T22:01:31.224Z,4.27
2017-08-15T22:04:01.679Z,3.73
2017-08-15T22:06:32.048Z,4.00
2017-08-15T22:09:02.610Z,4.03
2017-08-15T22:11:33.202Z,5.20
2017-08-15T22:14:03.571Z,4.00
2017-08-15T22:16:34.794Z,5.80
2017-08-15T22:19:05.228Z,4.63
2017-08-15T22:21:35.639Z,4.37
2017-08-15T22:24:06.123Z,4.80
2017-08-15T22:26:36.643Z,4.40
2017-08-15T22:29:07.272Z,4.57
2017-08-15T22:31:37.616Z,4.63
2017-08-15T22:34:08.122Z,4.60
2017-08-15T22:36:38.483Z,4.67
2017-08-15T22:39:08.964Z,5.40
2017-08-15T22:41:39.473Z,4.70
2017-08-15T22:44:10.079Z,4.97
2017-08-15T22:46:40.628Z,4.67
2017-08-15T22:49:11.781Z,5.10
2017-08-15T22:51:42.212Z,5.67
2017-08-15T22:54:13.599Z,4.70
2017-08-15T22:56:44.101Z,5.20
2017-08-15T22:59:14.632Z,4.30
2017-08-15T23:01:45.256Z,4.13
2017-08-15T23:04:16.036Z,4.00
2017-08-15T23:06:46.630Z,4.20
2017-08-15T23:09:17.065Z,4.90
2017-08-15T23:11:47.574Z,4.43
2017-08-15T23:14:18.154Z,3.87
2017-08-15T23:16:48.771Z,3.70
2017-08-15T23:19:19.318Z,4.33
2017-08-15T23:21:49.745Z,4.13
2017-08-15T23:24:20.259Z,3.63
2017-08-15T23:26:50.716Z,3.23
2017-08-15T23:29:21.175Z,4.33
2017-08-15T23:31:51.715Z,2.97
2017-08-15T23:34:22.622Z,3.07
2017-08-15T23:36:53.196Z,2.77
2017-08-15T23:39:23.740Z,3.20
2017-08-15T23:41:54.331Z,3.40
2017-08-15T23:44:24.868Z,3.10
2017-08-15T23:46:55.434Z,2.70
2017-08-15T23:49:26.083Z,3.90
2017-08-15T23:51:56.582Z,3.77
2017-08-15T23:54:27.854Z,3.30
2017-08-15T23:56:58.428Z,3.00
2017-08-15T23:59:29.004Z,3.87
